1964 Severe Tropical Cyclone KATIE (1964084S13129)


IBTrACS version v04r00. Visit IBTrACS website for data access.
Please direct all questions to the IBTrACS Q and A forum

Storm track - Intensity - Wind Radii - Intensity Data - Source Data - All data

Summary Information

Storm ID 1964084S13129
Start Mar 23 23Z
Landfall Mar 29 15Z, Mar 30 01Z, Apr 1 06Z
Max Intensity 85 kt (Mar 29 06Z), 960 mb (Mar 29 11Z)
End Apr 1 18Z
ATCF IDs ,SH281964
Track status Best track data.

Storm track plot

Map of storm track

Intensity plots

Map of storm track

Radial wind information

No radial wind information for this storm


Position and Intensity Table

BASIN ISO_TIME_________ NATURE LAT LON WMO PRES BOM PRES DS824 WIND DS824 PRES NEUMANN WIND NEUMANN PRES
degrees north degrees east mb mb kts mb kts mb
SI 1964-03-23 23:30:00 NR -13.00 129.00 1003 1003
SI 1964-03-24 00:00:00 TS -12.92 128.94 25 1003 25 1003
SI 03:00:00 TS -12.91 128.54 27 1001
SI 06:00:00 TS -12.91 128.14 30 1000
SI 09:00:00 TS -12.90 127.73 32 998
SI 12:00:00 TS -12.91 127.33 35 997
SI 15:00:00 TS -12.93 126.93 37 995
SI 18:00:00 TS -12.97 126.50 40 993
SI 21:00:00 TS -12.99 126.08 42 991
SI 23:00:00 TS -13.02 125.75 44 990
SI 23:30:00 TS -13.02 125.66 990 990 44 990
SI 1964-03-25 00:00:00 TS -13.02 125.56 45 990 45 990
SI 03:00:00 TS -13.15 124.80 45 990
SI 06:00:00 TS -13.34 123.92 45 990
SI 09:00:00 TS -13.56 123.05 45 990
SI 11:00:00 TS -13.73 122.48 45 990
SI 12:00:00 TS -13.81 122.19 45 990
SI 15:00:00 TS -14.11 121.33 45 990
SI 18:00:00 TS -14.41 120.51 45 990
SI 21:00:00 TS -14.67 119.73 45 990
SI 23:00:00 TS -14.83 119.26 45 990
SI 1964-03-26 00:00:00 TS -14.91 119.04 45 990
SI 01:00:00 TS -14.98 118.85 990 990 45 989
SI 03:00:00 TS -15.11 118.51 47 989
SI 06:00:00 TS -15.31 118.04 50 988
SI 09:00:00 TS -15.54 117.57 52 986
SI 11:00:00 TS -15.71 117.26 54 985
SI 12:00:00 TS -15.79 117.10 55 985
SI 15:00:00 TS -16.02 116.61 55 984
SI 18:00:00 TS -16.26 116.15 55 983
SI 21:00:00 TS -16.50 115.71 57 981
SI 23:00:00 TS -16.65 115.45 59 980
SI 1964-03-27 00:00:00 TS -16.73 115.32 60 980 60 980
SI 01:00:00 TS -16.79 115.21 980 980 60 979
SI 03:00:00 TS -16.90 115.03 62 978
SI 06:00:00 TS -17.04 114.81 65 976
SI 09:00:00 TS -17.17 114.63 67 974
SI 11:00:00 TS -17.27 114.52 69 972
SI 12:00:00 TS -17.32 114.47 70 972
SI 15:00:00 TS -17.48 114.31 72 970
SI 18:00:00 TS -17.64 114.18 75 968
SI 21:00:00 TS -17.78 114.08 77 966
SI 23:00:00 TS -17.87 114.02 79 965
SI 1964-03-28 00:00:00 TS -17.91 114.00 80 965 80 965
SI 01:00:00 TS -17.96 113.98 965 965 80 965
SI 03:00:00 TS -18.05 113.94 80 965
SI 06:00:00 TS -18.19 113.89 80 965
SI 09:00:00 TS -18.35 113.87 80 965
SI 11:00:00 TS -18.45 113.87 80 965
SI 12:00:00 TS -18.50 113.86 80 965
SI 15:00:00 TS -18.63 113.83 80 965
SI 18:00:00 TS -18.76 113.80 80 965 80 965
SI 19:00:00 TS -18.79 113.79 965 965 80 965 80 965
SI 21:00:00 TS -18.86 113.79 965 80 965 80 965
SI 23:00:00 TS -18.97 113.79 965 80 965 80 965
SI 1964-03-29 00:00:00 TS -19.05 113.80 965 80 965 80 965
SI 01:00:00 TS -19.17 113.81 965 965 80 964 80 964
SI 03:00:00 TS -19.43 113.84 964 81 963 82 964
SI 06:00:00 TS -19.93 113.90 962 82 962 85 963
SI 09:00:00 TS -20.55 113.96 961 83 961 85 961
SI 11:00:00 TS -21.03 113.97 960 84 960 85 960
SI 12:00:00 TS -21.30 113.98 960 960 85 960 85 960
SI 13:00:00 TS -21.57 113.97 960 960 82 961 81 960
SI 15:00:00 TS -21.96 113.95 960 78 965 75 963
SI 16:00:00 TS -22.12 113.94 960 960 76 966 71 963
SI 18:00:00 TS -22.49 113.90 964 72 970 65 966
SI 21:00:00 TS -23.06 113.83 971 66 975 57 973
SI 23:00:00 TS -23.43 113.73 975 62 978 52 977
SI 1964-03-30 00:00:00 TS -23.61 113.65 977 60 980 50 980
SI 01:00:00 TS -23.78 113.56 980 980 60 980 51 980
SI 03:00:00 TS -24.09 113.32 980 980 60 980 55 980
SI 06:00:00 TS -24.56 112.98 980 60 980 60 980
SI 07:00:00 TS -24.71 112.89 980 980 59 980
SI 09:00:00 TS -25.00 112.73 57 982
SI 11:00:00 TS -25.28 112.58 55 984
SI 12:00:00 TS -25.41 112.52 55 985
SI 15:00:00 TS -25.81 112.33 50 987
SI 18:00:00 TS -26.19 112.18 45 990
SI 21:00:00 TS -26.57 112.07 42 992
SI 23:00:00 TS -26.81 112.04 40 994
SI 1964-03-31 00:00:00 TS -26.93 112.05 40 995 40 995
SI 01:00:00 TS -27.04 112.07 995 995 39 995
SI 03:00:00 TS -27.25 112.16 37 995
SI 06:00:00 TS -27.55 112.34 35 996
SI 09:00:00 TS -27.86 112.55 35 997
SI 11:00:00 TS -28.06 112.72 35 997
SI 12:00:00 TS -28.16 112.80 35 998
SI 15:00:00 TS -28.43 113.09 32 998
SI 18:00:00 TS -28.70 113.42 30 999
SI 21:00:00 TS -28.98 113.75 30 999
SI 23:00:00 TS -29.19 114.02 30 999
SI 1964-04-01 00:00:00 TS -29.30 114.17 30 1000
SI 01:00:00 TS -29.42 114.33 1000 1000 28 1000
SI 03:00:00 TS -29.69 114.69 25 1002
SI 06:00:00 TS -30.14 115.37 20 1004
SI 09:00:00 TS -30.69 116.24 17 1006
SI 11:00:00 TS -31.07 116.84 15 1007
SI 12:00:00 TS -31.34 117.20 15 1008
SI 15:00:00 NR -31.94 118.13
SI 16:00:00 NR -32.18 118.48 1008 1008
SI 18:00:00 NR -32.90 119.30

Source Information

Agency Information
USA bsh281964.txt
TOKYO
CMA
HKO
NEWDELHI
REUNION
BOM IDCKMSTM0S.csv:Line=4063:KATIE
NADI
WELLINGTON
DS824 aus_area.dat:360:KATIE
TD9636
TD9635
NEUMANN tracks.sh:Storm=110:KATIE:BSH2864:BM335
MLC

All available IBTrACS Data

SEASON BASIN SUBBASIN ISO_TIME_________ NATURE LAT LON WMO PRES WMO AGENCY DIST2LAND LANDFALL IFLAG USA AGENCY USA ATCF_ID USA LAT USA LON USA SSHS BOM LAT BOM LON BOM PRES BOM PRES_METHOD DS824 LAT DS824 LON DS824 STAGE DS824 WIND DS824 PRES NEUMANN LAT NEUMANN LON NEUMANN CLASS NEUMANN WIND NEUMANN PRES STORM SPEED STORM DIR
Year degrees north degrees east mb km km degrees north degrees east 1 degrees north degrees east mb degrees north degrees east kts mb degrees north degrees east kts mb kts degrees
1964 SI WA 1964-03-23 23:30:00 NR -13.00 129.00 1003 bom 103 103 ______O_______ -1 -13.00 129.00 1003 12 327
1964 SI WA 1964-03-24 00:00:00 TS -12.92 128.94 118 118 O_____P__O__O_ jtwc_sh SH281964 -12.60 128.80 -1 -13.00 128.94 -13.00 129.00 TC 25 1003 -13.00 129.00 TC 25 1003 8 281
1964 SI WA 03:00:00 TS -12.91 128.54 156 144 P_____P__P__P_ SH281964 -12.60 128.33 -1 -12.98 128.60 -12.98 128.63 TC -13.06 128.55 TC 27 1001 8 271
1964 SI WA 06:00:00 TS -12.91 128.14 144 119 O_____P__P__O_ jtwc_sh SH281964 -12.60 127.90 -1 -12.96 128.25 -12.96 128.25 TC -13.10 128.10 TC 30 1000 8 271
1964 SI WA 09:00:00 TS -12.90 127.73 119 103 P_____P__P__P_ SH281964 -12.60 127.53 -1 -12.95 127.88 -12.96 127.86 TC -13.10 127.65 TC 32 998 8 270
1964 SI WA 12:00:00 TS -12.91 127.33 103 100 O_____P__P__O_ jtwc_sh SH281964 -12.60 127.20 -1 -12.96 127.48 -12.96 127.45 TC -13.10 127.20 TC 35 997 8 268
1964 SI WA 15:00:00 TS -12.93 126.93 100 92 P_____P__P__P_ SH281964 -12.60 126.91 -1 -12.99 127.04 -12.98 127.01 TC -13.15 126.74 TC 37 995 8 266
1964 SI WA 18:00:00 TS -12.97 126.50 99 99 O_____P__P__O_ jtwc_sh SH281964 -12.60 126.60 -1 -13.04 126.56 -13.03 126.55 TC -13.20 126.30 TC 40 993 8 266
1964 SI WA 21:00:00 TS -12.99 126.08 111 111 P_____P__P__P_ SH281964 -12.58 126.30 -1 -13.11 126.01 -13.10 126.05 TC -13.18 125.95 TC 42 991 9 266
1964 SI WA 23:00:00 TS -13.02 125.75 120 120 P_____P__P__P_ SH281964 -12.58 126.00 -1 -13.18 125.61 -13.16 125.69 TC -13.18 125.68 TC 44 990 10 266
1964 SI WA 23:30:00 TS -13.02 125.66 990 bom 120 120 P_____O__P__P_ SH281964 -12.59 125.91 -1 -13.20 125.50 990 -13.18 125.59 TC -13.19 125.59 TC 44 990 11 269
1964 SI WA 1964-03-25 00:00:00 TS -13.02 125.56 124 129 O_____P__O__O_ jtwc_sh SH281964 -12.60 125.80 -1 -13.22 125.39 -13.20 125.50 TC 45 990 -13.20 125.50 TC 45 990 14 261
1964 SI WA 03:00:00 TS -13.15 124.80 159 150 P_____P__P__P_ SH281964 -12.71 124.94 -1 -13.36 124.70 -13.33 124.90 TC -13.36 124.76 TC 45 990 16 259
1964 SI WA 06:00:00 TS -13.34 123.92 202 194 O_____P__P__O_ jtwc_sh SH281964 -12.90 123.90 -1 -13.53 123.96 -13.50 124.27 TC -13.60 123.90 TC 45 990 18 256
1964 SI WA 09:00:00 TS -13.56 123.05 252 262 P_____P__P__P_ SH281964 -13.11 122.89 -1 -13.73 123.17 -13.69 123.59 TC -13.84 123.10 TC 45 990 17 255
1964 SI WA 11:00:00 TS -13.73 122.48 295 294 P_____P__P__P_ SH281964 -13.29 122.22 -1 -13.87 122.63 -13.83 123.12 TC -14.01 122.57 TC 45 990 18 253
1964 SI WA 12:00:00 TS -13.81 122.19 310 303 O_____P__P__O_ jtwc_sh SH281964 -13.40 121.90 -1 -13.94 122.36 -13.91 122.89 TC -14.10 122.30 TC 45 990 18 251
1964 SI WA 15:00:00 TS -14.11 121.33 318 315 P_____P__P__P_ SH281964 -13.79 120.94 -1 -14.17 121.55 -14.14 122.16 TC -14.36 121.51 TC 45 990 17 250
1964 SI WA 18:00:00 TS -14.41 120.51 348 348 O_____P__P__O_ jtwc_sh SH281964 -14.20 120.10 -1 -14.42 120.74 -14.39 121.43 TC -14.60 120.70 TC 45 990 17 250
1964 SI WA 21:00:00 TS -14.67 119.73 386 386 P_____P__P__P_ SH281964 -14.54 119.42 -1 -14.66 119.96 -14.65 120.69 TC -14.80 119.80 TC 45 990 15 251
1964 SI WA 23:00:00 TS -14.83 119.26 411 412 P_____P__P__P_ SH281964 -14.73 119.06 -1 -14.83 119.47 -14.82 120.20 TC -14.93 119.25 TC 45 990 14 250
1964 SI WA 1964-03-26 00:00:00 TS -14.91 119.04 430 430 O_____P__P__O_ jtwc_sh SH281964 -14.80 118.90 -1 -14.92 119.23 -14.91 119.95 TC -15.00 119.00 TC 45 990 13 250
1964 SI WA 01:00:00 TS -14.98 118.85 990 bom 441 441 P_____O__P__P_ SH281964 -14.85 118.75 -1 -15.00 119.00 990 -15.00 119.71 TC -15.08 118.79 TC 45 989 11 249
1964 SI WA 03:00:00 TS -15.11 118.51 463 463 P_____P__P__P_ SH281964 -14.91 118.51 -1 -15.17 118.56 -15.18 119.23 TC -15.24 118.45 TC 47 989 10 247
1964 SI WA 06:00:00 TS -15.31 118.04 501 501 O_____P__P__O_ jtwc_sh SH281964 -15.00 118.20 -1 -15.43 117.93 -15.45 118.52 TC -15.50 118.00 TC 50 988 10 244
1964 SI WA 09:00:00 TS -15.54 117.57 530 524 P_____P__P__P_ SH281964 -15.18 117.86 -1 -15.70 117.34 -15.72 117.85 TC -15.75 117.50 TC 52 986 10 242
1964 SI WA 11:00:00 TS -15.71 117.26 527 521 P_____P__P__P_ SH281964 -15.33 117.63 -1 -15.87 116.97 -15.90 117.42 TC -15.92 117.17 TC 54 985 10 242
1964 SI WA 12:00:00 TS -15.79 117.10 525 514 O_____P__P__O_ jtwc_sh SH281964 -15.40 117.50 -1 -15.96 116.80 -15.98 117.21 TC -16.00 117.00 TC 55 985 10 243
1964 SI WA 15:00:00 TS -16.02 116.61 514 485 P_____P__P__P_ SH281964 -15.60 117.05 -1 -16.22 116.29 -16.23 116.62 TC -16.25 116.50 TC 55 984 10 243
1964 SI WA 18:00:00 TS -16.26 116.15 485 468 O_____P__P__O_ jtwc_sh SH281964 -15.80 116.60 -1 -16.48 115.84 -16.47 116.08 TC -16.50 116.00 TC 55 983 10 241
1964 SI WA 21:00:00 TS -16.50 115.71 470 462 P_____P__P__P_ SH281964 -16.01 116.23 -1 -16.72 115.44 -16.70 115.60 TC -16.77 115.45 TC 57 981 9 240
1964 SI WA 23:00:00 TS -16.65 115.45 468 457 P_____P__P__P_ SH281964 -16.14 116.01 -1 -16.86 115.21 -16.83 115.33 TC -16.93 115.13 TC 59 980 9 238
1964 SI WA 1964-03-27 00:00:00 TS -16.73 115.32 460 449 O_____P__O__O_ jtwc_sh SH281964 -16.20 115.90 -1 -16.93 115.10 -16.90 115.20 TC 60 980 -17.00 115.00 TC 60 980 8 236
1964 SI WA 01:00:00 TS -16.79 115.21 980 bom 453 446 P_____O__P__P_ SH281964 -16.24 115.79 -1 -17.00 115.00 980 -16.95 115.10 TC -17.06 114.91 TC 60 979 7 238
1964 SI WA 03:00:00 TS -16.90 115.03 450 445 P_____P__P__P_ SH281964 -16.30 115.58 -1 -17.11 114.81 -17.05 114.91 TC -17.17 114.79 TC 62 978 6 238
1964 SI WA 06:00:00 TS -17.04 114.81 449 434 O_____P__P__O_ jtwc_sh SH281964 -16.40 115.30 -1 -17.26 114.57 -17.20 114.67 TC -17.30 114.70 TC 65 976 5 234
1964 SI WA 09:00:00 TS -17.17 114.63 439 435 P_____P__P__P_ SH281964 -16.58 115.05 -1 -17.39 114.39 -17.34 114.48 TC -17.40 114.59 TC 67 974 4 230
1964 SI WA 11:00:00 TS -17.27 114.52 435 435 P_____P__P__P_ SH281964 -16.72 114.89 -1 -17.46 114.29 -17.43 114.37 TC -17.46 114.53 TC 69 972 4 226
1964 SI WA 12:00:00 TS -17.32 114.47 435 428 O_____P__P__O_ jtwc_sh SH281964 -16.80 114.80 -1 -17.50 114.25 -17.47 114.33 TC -17.50 114.50 TC 70 972 4 223
1964 SI WA 15:00:00 TS -17.48 114.31 428 424 P_____P__P__P_ SH281964 -17.05 114.48 -1 -17.61 114.16 -17.60 114.21 TC -17.65 114.41 TC 72 970 4 221
1964 SI WA 18:00:00 TS -17.64 114.18 424 410 O_____P__P__O_ jtwc_sh SH281964 -17.30 114.20 -1 -17.72 114.09 -17.73 114.12 TC -17.80 114.30 TC 75 968 4 217
1964 SI WA 21:00:00 TS -17.78 114.08 410 407 P_____P__P__P_ SH281964 -17.52 114.06 -1 -17.83 114.05 -17.86 114.05 TC -17.90 114.14 TC 77 966 3 212
1964 SI WA 23:00:00 TS -17.87 114.02 407 407 P_____P__P__P_ SH281964 -17.65 114.02 -1 -17.91 114.02 -17.95 114.02 TC -17.96 114.04 TC 79 965 3 205
1964 SI WA 1964-03-28 00:00:00 TS -17.91 114.00 407 398 O_____P__O__O_ jtwc_sh SH281964 -17.70 114.00 -1 -17.96 114.01 -18.00 114.00 TC 80 965 -18.00 114.00 TC 80 965 3 203
1964 SI WA 01:00:00 TS -17.96 113.98 965 bom 398 395 P_____O__P__P_ SH281964 -17.74 113.97 -1 -18.00 114.00 965 -18.05 113.97 TC -18.04 113.97 TC 80 965 3 207
1964 SI WA 03:00:00 TS -18.05 113.94 395 386 P_____P__P__P_ SH281964 -17.81 113.93 -1 -18.11 113.95 -18.15 113.93 TC -18.13 113.93 TC 80 965 3 200
1964 SI WA 06:00:00 TS -18.19 113.89 386 376 O_____P__P__O_ jtwc_sh SH281964 -17.90 113.90 -1 -18.27 113.90 -18.30 113.87 TC -18.30 113.90 TC 80 965 3 191
1964 SI WA 09:00:00 TS -18.35 113.87 376 358 P_____P__P__P_ SH281964 -18.01 113.90 -1 -18.44 113.86 -18.45 113.84 TC -18.50 113.90 TC 80 965 3 185
1964 SI WA 11:00:00 TS -18.45 113.87 358 358 P_____P__P__P_ SH281964 -18.07 113.90 -1 -18.56 113.84 -18.55 113.82 TC -18.64 113.90 TC 80 965 3 0
1964 SI WA 12:00:00 TS -18.50 113.86 358 349 O_____P__P__O_ jtwc_sh SH281964 -18.10 113.90 -1 -18.61 113.83 -18.60 113.82 TC -18.70 113.90 TC 80 965 3 194
1964 SI WA 15:00:00 TS -18.63 113.83 355 338 P_____P__P__P_ SH281964 -18.14 113.85 -1 -18.78 113.81 -18.75 113.80 TC -18.86 113.85 TC 80 965 3 192
1964 SI WA 18:00:00 TS -18.76 113.80 338 338 O_____P__O__O_ jtwc_sh SH281964 -18.20 113.80 -1 -18.95 113.80 -18.90 113.80 TC 80 965 -19.00 113.80 TC 80 965 2 195
1964 SI WA 19:00:00 TS -18.79 113.79 965 bom 338 329 P_____O__P__P_ SH281964 -18.22 113.79 -1 -19.00 113.80 965 -18.93 113.80 TC 80 965 -19.03 113.79 TC 80 965 2 0
1964 SI WA 21:00:00 TS -18.86 113.79 329 321 P_____P__P__P_ SH281964 -18.27 113.79 -1 -19.07 113.79 965 -19.01 113.79 TC 80 965 -19.09 113.79 TC 80 965 3 0
1964 SI WA 23:00:00 TS -18.97 113.79 321 312 P_____P__P__P_ SH281964 -18.40 113.79 -1 -19.15 113.79 965 -19.12 113.80 TC 80 965 -19.20 113.79 TC 80 965 4 0
1964 SI WA 1964-03-29 00:00:00 TS -19.05 113.80 312 312 O_____P__O__O_ jtwc_sh SH281964 -18.50 113.80 -1 -19.22 113.79 965 -19.20 113.80 TC 80 965 -19.30 113.80 TC 80 965 6 178
1964 SI WA 01:00:00 TS -19.17 113.81 965 bom 302 280 P_____O__P__P_ SH281964 -18.64 113.81 -1 -19.30 113.80 965 -19.30 113.81 TC 80 964 -19.43 113.81 TC 80 964 8 173
1964 SI WA 03:00:00 TS -19.43 113.84 280 223 P_____P__P__P_ SH281964 -18.98 113.85 -1 -19.39 113.83 964 -19.56 113.85 TC 81 963 -19.77 113.84 TC 82 964 9 174
1964 SI WA 06:00:00 TS -19.93 113.90 223 156 O_____P__P__O_ jtwc_sh SH281964 -19.60 113.90 -1 -19.64 113.90 962 -20.07 113.91 TC 82 962 -20.40 113.90 TC 85 963 11 175
1964 SI WA 09:00:00 TS -20.55 113.96 156 100 P_____P__P__P_ SH281964 -20.21 113.92 -1 -20.21 113.97 961 -20.66 113.97 TC 83 961 -21.10 113.96 TC 85 961 13 176
1964 SI WA 11:00:00 TS -21.03 113.97 100 67 P_____P__P__P_ SH281964 -20.61 113.91 -1 -20.87 113.99 960 -21.09 114.00 TC 84 960 -21.58 113.99 TC 85 960 15 0
1964 SI WA 12:00:00 TS -21.30 113.98 960 bom 67 44 O_____O__O__O_ jtwc_sh SH281964 -20.80 113.90 -1 -21.30 114.00 960 -21.30 114.00 TC 85 960 -21.80 114.00 TC 85 960 16 183
1964 SI WA 13:00:00 TS -21.57 113.97 960 bom 33 0 P_____O__P__P_ SH281964 -20.98 113.88 -1 -21.80 114.00 960 -21.50 114.01 TC 82 961 -22.00 114.00 TC 81 960 13 182
1964 SI WA 15:00:00 TS -21.96 113.95 0 0 P_____P__P__P_ SH281964 -21.31 113.82 -1 -22.23 114.00 960 -21.93 114.02 TC 78 965 -22.37 113.97 TC 75 963 11 185
1964 SI WA 16:00:00 TS -22.12 113.94 960 bom 0 0 P_____O__P__P_ SH281964 -21.48 113.79 -1 -22.30 114.00 960 4 -22.14 114.02 TC 76 966 -22.55 113.95 TC 71 963 11 186
1964 SI WA 18:00:00 TS -22.49 113.90 0 0 O_____P__P__O_ jtwc_sh SH281964 -21.80 113.70 -1 -22.67 114.01 964 -22.57 114.00 TC 72 970 -22.90 113.90 TC 65 966 11 187
1964 SI WA 21:00:00 TS -23.06 113.83 0 0 P_____P__P__P_ SH281964 -22.31 113.56 -1 -23.27 113.99 971 -23.21 113.90 TC 66 975 -23.46 113.85 TC 57 973 12 190
1964 SI WA 23:00:00 TS -23.43 113.73 10 10 P_____P__P__P_ SH281964 -22.64 113.46 -1 -23.65 113.89 975 -23.61 113.78 TC 62 978 -23.82 113.77 TC 52 977 11 196
1964 SI WA 1964-03-30 00:00:00 TS -23.61 113.65 10 10 O_____P__O__O_ jtwc_sh SH281964 -22.80 113.40 -1 -23.83 113.81 977 -23.80 113.70 TC 60 980 -24.00 113.70 TC 50 980 11 204
1964 SI WA 01:00:00 TS -23.78 113.56 980 bom 0 0 P_____O__P__P_ SH281964 -22.94 113.34 -1 -24.00 113.70 980 -23.98 113.60 TC 60 980 -24.18 113.59 TC 51 980 11 212
1964 SI WA 03:00:00 TS -24.09 113.32 980 bom 20 20 P_____O__P__P_ SH281964 -23.20 113.21 -1 -24.30 113.40 980 -24.33 113.37 TC 60 980 -24.53 113.31 TC 55 980 11 214
1964 SI WA 06:00:00 TS -24.56 112.98 46 46 O_____P__O__O_ jtwc_sh SH281964 -23.60 113.00 -1 -24.82 113.01 980 -24.80 113.00 TC 60 980 -25.00 112.90 TC 60 980 11 212
1964 SI WA 07:00:00 TS -24.71 112.89 980 bom 60 60 P_____O__P__P_ SH281964 -23.75 112.93 -1 -25.00 112.90 980 -24.95 112.90 TC -25.13 112.82 TC 59 980 10 207
1964 SI WA 09:00:00 TS -25.00 112.73 91 91 P_____P__P__P_ SH281964 -24.08 112.80 -1 -25.31 112.68 -25.24 112.71 TC -25.37 112.71 TC 57 982 9 206
1964 SI WA 11:00:00 TS -25.28 112.58 91 91 P_____P__P__P_ SH281964 -24.42 112.67 -1 -25.59 112.50 -25.50 112.54 TC -25.59 112.64 TC 55 984 9 204
1964 SI WA 12:00:00 TS -25.41 112.52 96 92 O_____P__P__O_ jtwc_sh SH281964 -24.60 112.60 -1 -25.72 112.41 -25.62 112.46 TC -25.70 112.60 TC 55 985 9 203
1964 SI WA 15:00:00 TS -25.81 112.33 105 100 P_____P__P__P_ SH281964 -25.14 112.38 -1 -26.07 112.21 -25.98 112.28 TC -26.06 112.45 TC 50 987 8 201
1964 SI WA 18:00:00 TS -26.19 112.18 109 109 O_____P__P__O_ jtwc_sh SH281964 -25.70 112.20 -1 -26.37 112.07 -26.30 112.15 TC -26.40 112.30 TC 45 990 8 197
1964 SI WA 21:00:00 TS -26.57 112.07 123 123 P_____P__P__P_ SH281964 -26.31 112.08 -1 -26.65 112.00 -26.60 112.09 TC -26.71 112.09 TC 42 992 8 191
1964 SI WA 23:00:00 TS -26.81 112.04 140 140 P_____P__P__P_ SH281964 -26.71 112.07 -1 -26.83 111.98 -26.80 112.09 TC -26.91 112.00 TC 40 994 7 0
1964 SI WA 1964-03-31 00:00:00 TS -26.93 112.05 145 136 O_____P__O__O_ jtwc_sh SH281964 -26.90 112.10 -1 -26.91 111.99 -26.90 112.10 TC 40 995 -27.00 112.00 TC 40 995 7 173
1964 SI WA 01:00:00 TS -27.04 112.07 995 bom 142 142 P_____O__P__P_ SH281964 -27.07 112.14 -1 -27.00 112.00 995 -27.00 112.12 TC -27.09 112.04 TC 39 995 7 164
1964 SI WA 03:00:00 TS -27.25 112.16 148 150 P_____P__P__P_ SH281964 -27.38 112.28 -1 -27.17 111.97 -27.19 112.18 TC -27.25 112.20 TC 37 995 7 155
1964 SI WA 06:00:00 TS -27.55 112.34 156 147 O_____P__P__O_ jtwc_sh SH281964 -27.80 112.60 -1 -27.41 111.96 -27.49 112.32 TC -27.50 112.50 TC 35 996 7 150
1964 SI WA 09:00:00 TS -27.86 112.55 147 139 P_____P__P__P_ SH281964 -28.22 112.98 -1 -27.63 112.01 -27.78 112.52 TC -27.80 112.70 TC 35 997 7 147
1964 SI WA 11:00:00 TS -28.06 112.72 141 131 P_____P__P__P_ SH281964 -28.48 113.26 -1 -27.78 112.09 -27.97 112.69 TC -28.00 112.83 TC 35 997 7 143
1964 SI WA 12:00:00 TS -28.16 112.80 135 112 O_____P__P__O_ jtwc_sh SH281964 -28.60 113.40 -1 -27.85 112.14 -28.07 112.78 TC -28.10 112.90 TC 35 998 7 138
1964 SI WA 15:00:00 TS -28.43 113.09 112 102 P_____P__P__P_ SH281964 -28.91 113.79 -1 -28.08 112.35 -28.36 113.08 TC -28.36 113.15 TC 32 998 8 135
1964 SI WA 18:00:00 TS -28.70 113.42 102 80 O_____P__P__O_ jtwc_sh SH281964 -29.20 114.20 -1 -28.34 112.65 -28.65 113.41 TC -28.60 113.40 TC 30 999 8 134
1964 SI WA 21:00:00 TS -28.98 113.75 80 73 P_____P__P__P_ SH281964 -29.52 114.63 -1 -28.63 113.06 -28.94 113.78 TC -28.83 113.55 TC 30 999 9 133
1964 SI WA 23:00:00 TS -29.19 114.02 73 65 P_____P__P__P_ SH281964 -29.76 114.94 -1 -28.85 113.40 -29.13 114.04 TC -29.00 113.69 TC 30 999 10 131
1964 SI WA 1964-04-01 00:00:00 TS -29.30 114.17 65 65 O_____P__P__O_ jtwc_sh SH281964 -29.90 115.10 -1 -28.97 113.59 -29.23 114.17 TC -29.10 113.80 TC 30 1000 11 131
1964 SI WA 01:00:00 TS -29.42 114.33 1000 bom 65 28 P_____O__P__P_ SH281964 -30.05 115.26 -1 -29.10 113.80 1000 -29.33 114.31 TC -29.19 113.93 TC 28 1000 12 130
1964 SI WA 03:00:00 TS -29.69 114.69 28 0 P_____P__P__P_ SH281964 -30.38 115.61 -1 -29.37 114.24 -29.52 114.58 TC -29.40 114.28 TC 25 1002 14 128
1964 SI WA 06:00:00 TS -30.14 115.37 bom 0 0 O_____O__O__O_ jtwc_sh SH281964 -30.90 116.20 -1 -29.80 115.00 -29.80 115.00 TC -29.80 115.00 TC 20 1004 17 127
1964 SI WA 09:00:00 TS -30.69 116.24 0 0 P_____P_____P_ SH281964 -31.40 116.86 -1 -30.26 115.84 TC -30.32 115.94 TC 17 1006 19 126
1964 SI WA 11:00:00 TS -31.07 116.84 0 0 P_____P_____P_ SH281964 -31.73 117.34 -1 -30.58 116.44 TC -30.70 116.64 TC 15 1007 21 128
1964 SI WA 12:00:00 TS -31.34 117.20 0 0 O_____P_____O_ jtwc_sh SH281964 -31.90 117.60 -1 -30.75 116.74 TC -30.90 117.00 TC 15 1008 21 128
1964 SI WA 15:00:00 NR -31.94 118.13 0 0 P_____P_______ SH281964 -32.40 118.43 -1 -31.24 117.68 TC TC 21 128
1964 SI WA 16:00:00 NR -32.18 118.48 1008 bom 0 0 P_____O_______ SH281964 -32.57 118.71 -1 -31.40 118.00 1008 TC TC 28 134
1964 SI WA 18:00:00 NR -32.90 119.30 0 O_____________ jtwc_sh SH281964 -32.90 119.30 -1 TC 30 136